Time;durP1;ratioP1;P1;durP2;ratioP2;P2;SDS_P1;SDS_P2;PMS_P1;PMS_P2;Temp;Humidity;BMP_temperature;BMP_pressure;BME280_temperature;BME280_humidity;BME280_pressure;Samples;Min_cycle;Max_cycle;Signal;HPM_P1;HPM_P2
2020/12/18 00:03:57;;;;;;;65.85;24.73;;;;;;;3.34;100.00;95733.47;10532690;28;20513;-71
2020/12/18 00:08:57;;;;;;;69.82;25.25;;;;;;;3.11;100.00;95731.97;10532918;28;20032;-71
2020/12/18 00:13:57;;;;;;;58.83;23.27;;;;;;;3.28;100.00;95731.59;10533113;28;20044;-71
2020/12/18 00:18:58;;;;;;;67.70;25.27;;;;;;;3.55;100.00;95724.47;10531727;28;21160;-72
2020/12/18 00:23:58;;;;;;;57.80;22.67;;;;;;;3.72;100.00;95722.22;10531509;28;20351;-71
2020/12/18 00:28:59;;;;;;;49.55;18.90;;;;;;;3.89;100.00;95720.78;10531920;28;20032;-71
2020/12/18 00:33:59;;;;;;;50.10;21.00;;;;;;;3.96;100.00;95726.06;10530985;28;20039;-72
2020/12/18 00:39:00;;;;;;;52.63;22.03;;;;;;;3.59;100.00;95729.19;10531464;28;20024;-72
2020/12/18 00:44:01;;;;;;;50.05;20.65;;;;;;;3.45;100.00;95727.53;10531494;28;20742;-71
2020/12/18 00:49:01;;;;;;;44.63;18.67;;;;;;;3.33;100.00;95729.16;10488081;28;20043;-72
2020/12/18 00:54:01;;;;;;;44.80;18.23;;;;;;;3.62;100.00;95732.47;10489028;28;20306;-72
2020/12/18 00:59:02;;;;;;;45.90;19.03;;;;;;;3.72;100.00;95735.50;10523322;28;20381;-77
2020/12/18 01:04:03;;;;;;;43.25;16.15;;;;;;;3.90;100.00;95734.91;10530413;28;20035;-76
2020/12/18 01:09:04;;;;;;;44.45;17.63;;;;;;;3.83;100.00;95723.44;10529253;28;20028;-77
2020/12/18 01:14:04;;;;;;;39.42;18.50;;;;;;;3.93;100.00;95737.97;10530250;28;20040;-76
2020/12/18 01:19:05;;;;;;;44.47;18.98;;;;;;;4.09;100.00;95735.91;10493234;28;20044;-77
2020/12/18 01:24:05;;;;;;;43.75;18.10;;;;;;;3.68;100.00;95732.44;10462074;28;20037;-76
2020/12/18 01:29:05;;;;;;;40.03;17.70;;;;;;;3.62;100.00;95738.59;10446811;28;20082;-76
2020/12/18 01:34:06;;;;;;;43.22;18.80;;;;;;;3.33;100.00;95729.16;10427904;28;20036;-76
2020/12/18 01:39:07;;;;;;;48.03;18.30;;;;;;;3.21;100.00;95729.75;10446734;28;20036;-76
2020/12/18 01:44:07;;;;;;;51.50;19.63;;;;;;;3.28;100.00;95719.16;10446648;28;20025;-76
2020/12/18 01:49:08;;;;;;;50.78;18.98;;;;;;;3.49;100.00;95726.13;10486771;28;20043;-76
2020/12/18 01:54:09;;;;;;;47.58;19.05;;;;;;;3.71;100.00;95721.41;10487771;28;20086;-77
2020/12/18 01:59:09;;;;;;;44.92;19.05;;;;;;;3.68;100.00;95724.47;10487462;28;20059;-77
2020/12/18 02:04:09;;;;;;;42.78;16.92;;;;;;;3.75;100.00;95722.66;10486978;28;20056;-77
2020/12/18 02:09:10;;;;;;;47.23;19.23;;;;;;;3.76;100.00;95718.13;10487047;28;20025;-78
2020/12/18 02:14:12;;;;;;;48.37;20.87;;;;;;;3.80;100.00;95710.56;10469143;28;20290;-77
2020/12/18 02:19:17;;;;;;;43.13;18.65;;;;;;;3.89;100.00;95709.31;10522750;28;20312;-76
2020/12/18 02:24:25;;;;;;;51.47;20.45;;;;;;;3.70;100.00;95701.16;10527421;28;20032;-76
2020/12/18 02:29:26;;;;;;;54.37;20.00;;;;;;;3.87;100.00;95712.19;10527350;28;20107;-76
2020/12/18 02:34:26;;;;;;;44.73;18.57;;;;;;;3.78;100.00;95712.59;10528034;28;20665;-77
2020/12/18 02:39:27;;;;;;;39.90;16.42;;;;;;;3.85;100.00;95710.75;10527536;28;20278;-77
2020/12/18 02:44:27;;;;;;;51.47;20.73;;;;;;;3.81;100.00;95709.53;10528783;28;20020;-76
2020/12/18 02:49:28;;;;;;;51.17;18.83;;;;;;;3.67;100.00;95720.19;10535047;28;20039;-76
2020/12/18 02:54:28;;;;;;;58.80;22.50;;;;;;;3.56;100.00;95718.16;10535170;28;20309;-77
2020/12/18 02:59:28;;;;;;;61.83;21.90;;;;;;;3.43;100.00;95716.28;10536172;28;20832;-76
2020/12/18 03:04:29;;;;;;;59.53;21.93;;;;;;;3.41;100.00;95721.00;10535447;28;20487;-76
2020/12/18 03:09:29;;;;;;;52.03;21.70;;;;;;;3.45;100.00;95711.59;10518256;28;20285;-76
2020/12/18 03:14:30;;;;;;;58.03;20.85;;;;;;;3.36;100.00;95715.47;10537036;28;20043;-76
2020/12/18 03:19:30;;;;;;;53.50;20.30;;;;;;;3.30;100.00;95710.97;10495996;28;20067;-76
2020/12/18 03:24:30;;;;;;;60.50;23.15;;;;;;;2.99;100.00;95710.50;10493510;28;20033;-76
2020/12/18 03:29:31;;;;;;;66.45;21.80;;;;;;;2.86;100.00;95716.63;10494203;28;20046;-76
2020/12/18 03:34:31;;;;;;;61.13;23.03;;;;;;;3.06;100.00;95721.97;10493931;28;20036;-77
2020/12/18 03:39:32;;;;;;;59.08;21.85;;;;;;;3.34;100.00;95726.31;10493493;28;20784;-77
2020/12/18 03:44:33;;;;;;;63.72;21.58;;;;;;;3.44;100.00;95722.44;10493551;28;20411;-77
2020/12/18 03:49:34;;;;;;;53.27;21.13;;;;;;;3.69;100.00;95730.63;10494347;28;20035;-78
2020/12/18 03:54:34;;;;;;;45.53;19.63;;;;;;;3.74;100.00;95728.13;10493675;28;20294;-77
2020/12/18 03:59:35;;;;;;;55.17;21.30;;;;;;;3.68;100.00;95721.81;10492493;28;20031;-77
2020/12/18 04:04:35;;;;;;;49.40;19.48;;;;;;;3.71;100.00;95723.25;10493474;28;20776;-78
2020/12/18 04:09:35;;;;;;;51.73;21.37;;;;;;;3.72;100.00;95725.69;10492446;28;20028;-76
2020/12/18 04:14:36;;;;;;;50.90;19.10;;;;;;;3.77;100.00;95722.44;10492116;28;20379;-75
2020/12/18 04:19:36;;;;;;;52.75;20.60;;;;;;;3.58;100.00;95737.34;10533484;28;20056;-75
2020/12/18 04:24:37;;;;;;;42.00;18.77;;;;;;;3.62;100.00;95740.44;10533399;28;20031;-76
2020/12/18 04:29:38;;;;;;;47.38;16.73;;;;;;;3.38;100.00;95745.31;10532944;28;20062;-76
2020/12/18 04:34:38;;;;;;;40.27;14.33;;;;;;;3.27;100.00;95745.94;10533010;28;20513;-76
2020/12/18 04:39:38;;;;;;;52.97;20.27;;;;;;;3.04;100.00;95747.91;10532398;28;20286;-77
2020/12/18 04:44:39;;;;;;;39.07;17.53;;;;;;;2.82;100.00;95744.59;10532869;28;20285;-77
2020/12/18 04:49:41;;;;;;;51.78;19.00;;;;;;;2.47;100.00;95749.13;10532660;28;20350;-76
2020/12/18 04:54:42;;;;;;;53.35;18.65;;;;;;;2.26;100.00;95745.56;10532190;28;20040;-76
2020/12/18 04:59:44;;;;;;;52.85;16.88;;;;;;;2.34;100.00;95761.31;10532244;28;20028;-77
2020/12/18 05:04:44;;;;;;;54.78;20.20;;;;;;;2.32;100.00;95757.22;10514467;28;20406;-77
2020/12/18 05:09:50;;;;;;;57.50;20.30;;;;;;;2.26;100.00;95755.34;10532929;28;20024;-77
2020/12/18 05:14:50;;;;;;;56.83;21.10;;;;;;;2.21;100.00;95766.53;10531230;28;20040;-77
2020/12/18 05:19:52;;;;;;;59.13;23.17;;;;;;;2.26;100.00;95756.19;10530961;28;20044;-72
2020/12/18 05:24:55;;;;;;;57.08;20.27;;;;;;;2.40;100.00;95765.03;10520195;28;20904;-72
2020/12/18 05:30:05;;;;;;;69.60;23.42;;;;;;;2.28;100.00;95774.56;10530053;28;20032;-72
2020/12/18 05:35:10;;;;;;;60.53;23.35;;;;;;;2.30;100.00;95781.31;10529781;28;20036;-72
2020/12/18 05:40:12;;;;;;;46.45;20.88;;;;;;;2.35;100.00;95783.38;10511599;28;20032;-71
2020/12/18 05:45:18;;;;;;;48.47;18.52;;;;;;;2.41;100.00;95784.41;10510680;28;20039;-71
2020/12/18 05:50:19;;;;;;;50.30;18.52;;;;;;;2.27;100.00;95784.31;10528725;28;20044;-72
2020/12/18 05:55:20;;;;;;;59.83;19.90;;;;;;;2.22;100.00;95784.09;10509751;28;20877;-72
2020/12/18 06:00:23;;;;;;;60.35;19.92;;;;;;;2.17;100.00;95794.47;10526854;28;20040;-72
2020/12/18 06:05:25;;;;;;;62.95;19.63;;;;;;;2.19;100.00;95793.28;10503280;28;20028;-72
2020/12/18 06:10:25;;;;;;;53.38;18.20;;;;;;;2.34;100.00;95795.78;10500672;28;20055;-71
2020/12/18 06:15:26;;;;;;;55.17;19.95;;;;;;;2.26;100.00;95803.94;10523365;28;20051;-72
2020/12/18 06:20:34;;;;;;;57.45;19.20;;;;;;;2.15;100.00;95804.44;10527864;28;20036;-72
2020/12/18 06:25:40;;;;;;;51.90;17.33;;;;;;;2.16;100.00;95798.97;10527803;28;20044;-72
2020/12/18 06:30:41;;;;;;;53.60;20.67;;;;;;;2.14;100.00;95806.28;10509265;28;20815;-72
2020/12/18 06:35:46;;;;;;;57.80;21.93;;;;;;;2.15;100.00;95812.38;10526812;28;20032;-72
2020/12/18 06:40:46;;;;;;;66.22;21.73;;;;;;;2.37;100.00;95813.16;10507673;28;20039;-72
2020/12/18 06:46:03;;;;;;;53.25;21.10;;;;;;;2.37;100.00;95821.13;10526588;28;20032;-72
2020/12/18 06:51:24;;;;;;;65.97;24.77;;;;;;;2.25;100.00;95814.69;10509029;28;20746;-72
2020/12/18 06:56:27;;;;;;;54.33;21.60;;;;;;;2.34;100.00;95824.97;10527067;28;20043;-72
2020/12/18 07:01:30;;;;;;;59.63;22.70;;;;;;;2.34;100.00;95827.63;10526840;28;20043;-72
2020/12/18 07:06:33;;;;;;;70.07;23.33;;;;;;;2.11;100.00;95822.59;10526979;28;20032;-73
2020/12/18 07:11:35;;;;;;;54.20;19.70;;;;;;;2.15;100.00;95830.97;10505022;28;20517;-73
2020/12/18 07:16:36;;;;;;;61.92;26.05;;;;;;;2.20;100.00;95826.72;10514310;28;20507;-70
2020/12/18 07:21:40;;;;;;;64.32;24.23;;;;;;;2.24;100.00;95829.00;10511255;28;20044;-71
2020/12/18 07:26:40;;;;;;;72.40;24.70;;;;;;;2.15;100.00;95831.78;10524762;28;20036;-71
2020/12/18 07:31:41;;;;;;;60.30;21.00;;;;;;;2.12;100.00;95829.53;10526743;28;20084;-71
2020/12/18 07:36:41;;;;;;;66.65;22.25;;;;;;;2.11;100.00;95829.69;10514831;28;20661;-71
2020/12/18 07:41:42;;;;;;;72.47;21.33;;;;;;;2.31;100.00;95843.13;10534737;28;20032;-71
2020/12/18 07:46:43;;;;;;;80.40;25.15;;;;;;;2.60;100.00;95842.09;10534769;28;20289;-71
2020/12/18 07:51:43;;;;;;;64.63;22.40;;;;;;;2.24;100.00;95850.22;10522893;28;20512;-72
2020/12/18 07:56:44;;;;;;;57.58;21.60;;;;;;;2.48;100.00;95848.94;10513802;28;20033;-72
2020/12/18 08:01:47;;;;;;;77.70;22.65;;;;;;;2.74;100.00;95843.78;10517225;28;20464;-72
2020/12/18 08:06:47;;;;;;;62.63;24.13;;;;;;;2.65;100.00;95846.78;10531729;28;20024;-72
2020/12/18 08:11:52;;;;;;;60.40;23.20;;;;;;;2.54;100.00;95845.50;10531299;28;20032;-72
2020/12/18 08:16:53;;;;;;;52.70;20.30;;;;;;;2.81;100.00;95846.47;10513216;28;20048;-72
2020/12/18 08:21:55;;;;;;;57.33;22.45;;;;;;;2.62;100.00;95842.69;10512777;28;20800;-72
2020/12/18 08:27:05;;;;;;;51.97;22.67;;;;;;;2.56;100.00;95843.47;10531699;28;20032;-72
2020/12/18 08:32:08;;;;;;;50.38;22.45;;;;;;;2.67;100.00;95850.91;10528522;28;20043;-71
2020/12/18 08:37:08;;;;;;;57.50;24.10;;;;;;;3.10;100.00;95855.19;10509351;28;20495;-72
2020/12/18 08:42:09;;;;;;;65.40;22.75;;;;;;;3.27;100.00;95850.34;10529969;28;20028;-72
2020/12/18 08:47:20;;;;;;;62.35;24.70;;;;;;;3.35;100.00;95852.81;10527871;28;20415;-72
2020/12/18 08:52:23;;;;;;;71.82;26.73;;;;;;;3.41;100.00;95851.22;10516670;28;20040;-72
2020/12/18 08:57:26;;;;;;;58.10;22.98;;;;;;;3.69;100.00;95839.63;10520407;28;20044;-72
2020/12/18 09:02:30;;;;;;;61.47;23.30;;;;;;;3.71;100.00;95840.22;10530631;28;20085;-71
2020/12/18 09:07:51;;;;;;;62.03;24.13;;;;;;;3.92;100.00;95837.38;10531442;28;20528;-71
2020/12/18 09:12:52;;;;;;;67.32;27.13;;;;;;;3.96;100.00;95834.31;10530861;28;20422;-71
2020/12/18 09:18:01;;;;;;;65.15;25.80;;;;;;;4.16;100.00;95835.13;10531383;28;20080;-72
2020/12/18 09:23:05;;;;;;;56.83;25.83;;;;;;;4.15;100.00;95830.03;10531410;28;20028;-72
2020/12/18 09:28:19;;;;;;;68.45;27.27;;;;;;;3.80;100.00;95824.91;10530845;28;20103;-72
2020/12/18 09:33:26;;;;;;;73.65;28.48;;;;;;;3.74;100.00;95826.50;10512223;28;20051;-72
2020/12/18 09:38:31;;;;;;;71.55;29.13;;;;;;;3.82;100.00;95815.69;10488492;28;20503;-72
2020/12/18 09:43:32;;;;;;;71.22;28.77;;;;;;;3.93;100.00;95812.44;10496340;28;20125;-72
2020/12/18 09:48:32;;;;;;;77.80;31.90;;;;;;;4.36;100.00;95818.34;10488321;28;20093;-72
2020/12/18 09:53:33;;;;;;;62.20;27.80;;;;;;;4.76;100.00;95811.06;10488326;28;20037;-72
2020/12/18 09:58:33;;;;;;;63.90;27.73;;;;;;;4.73;100.00;95803.50;10486971;28;20039;-73
2020/12/18 10:03:34;;;;;;;64.03;25.75;;;;;;;4.45;100.00;95798.44;10487807;28;20666;-72
2020/12/18 10:08:34;;;;;;;68.18;27.95;;;;;;;4.39;100.00;95791.31;10487606;28;20044;-72
2020/12/18 10:13:34;;;;;;;67.43;28.30;;;;;;;4.58;100.00;95782.44;10487198;28;20030;-71
2020/12/18 10:18:36;;;;;;;74.05;28.00;;;;;;;4.86;100.00;95775.19;10486852;28;20063;-72
2020/12/18 10:23:36;;;;;;;70.43;28.15;;;;;;;5.31;100.00;95769.84;10487716;28;20078;-72
2020/12/18 10:28:38;;;;;;;62.83;25.63;;;;;;;5.80;100.00;95770.13;10504204;28;20552;-72
2020/12/18 10:33:38;;;;;;;62.15;27.02;;;;;;;6.35;100.00;95758.81;10502734;28;20032;-73
2020/12/18 10:38:38;;;;;;;65.43;28.33;;;;;;;7.31;100.00;95761.78;10508956;28;20036;-72
2020/12/18 10:43:39;;;;;;;57.87;25.43;;;;;;;8.47;100.00;95749.03;10489967;28;20387;-72
2020/12/18 10:48:39;;;;;;;62.38;28.02;;;;;;;9.20;100.00;95739.53;10499836;28;20537;-72
2020/12/18 10:53:40;;;;;;;68.28;30.08;;;;;;;9.04;100.00;95746.47;10524372;28;20062;-72
2020/12/18 10:58:40;;;;;;;59.07;27.33;;;;;;;8.25;100.00;95748.78;10528074;28;20036;-71
2020/12/18 11:03:41;;;;;;;65.85;30.25;;;;;;;8.16;100.00;95741.13;10527549;28;20038;-71
2020/12/18 11:08:41;;;;;;;64.10;30.88;;;;;;;7.78;100.00;95739.66;10532038;28;20498;-71
2020/12/18 11:13:42;;;;;;;71.93;31.10;;;;;;;7.83;100.00;95728.28;10517874;28;20036;-71
2020/12/18 11:18:42;;;;;;;79.63;32.20;;;;;;;7.97;100.00;95724.34;10535933;28;20055;-72
2020/12/18 11:23:43;;;;;;;67.75;33.60;;;;;;;8.71;100.00;95720.34;10535750;28;20462;-72
2020/12/18 11:28:43;;;;;;;71.53;32.27;;;;;;;8.83;100.00;95715.78;10535079;28;20434;-71
2020/12/18 11:33:44;;;;;;;77.53;31.92;;;;;;;10.45;100.00;95708.28;10534786;28;20451;-73
2020/12/18 11:38:44;;;;;;;74.95;31.55;;;;;;;10.55;94.57;95705.75;10524470;28;20032;-71
2020/12/18 11:43:45;;;;;;;68.03;32.05;;;;;;;10.59;92.24;95706.03;10520280;28;20036;-71
2020/12/18 11:48:45;;;;;;;73.60;30.33;;;;;;;10.49;89.67;95713.97;10526946;28;20039;-71
2020/12/18 11:53:45;;;;;;;63.53;29.13;;;;;;;10.17;91.61;95719.94;10532563;28;20294;-71
2020/12/18 11:58:46;;;;;;;73.23;32.07;;;;;;;9.02;100.00;95721.75;10514793;28;20324;-71
2020/12/18 12:03:46;;;;;;;75.97;33.37;;;;;;;8.47;100.00;95716.88;10533054;28;20286;-71
2020/12/18 12:08:49;;;;;;;76.30;32.70;;;;;;;7.91;100.00;95716.41;10532832;28;20479;-71
2020/12/18 12:13:49;;;;;;;67.28;32.53;;;;;;;7.63;100.00;95726.75;10533009;28;20048;-71
2020/12/18 12:18:50;;;;;;;77.23;33.60;;;;;;;7.38;100.00;95723.41;10532487;28;20046;-71
2020/12/18 12:23:50;;;;;;;80.23;36.27;;;;;;;7.12;100.00;95726.22;10532731;28;20036;-71
2020/12/18 12:28:51;;;;;;;86.80;37.37;;;;;;;7.05;100.00;95724.69;10532467;28;20288;-71
2020/12/18 12:33:51;;;;;;;72.80;34.53;;;;;;;6.80;100.00;95721.09;10532349;28;20097;-71
2020/12/18 12:38:52;;;;;;;76.20;35.15;;;;;;;6.66;100.00;95720.44;10532589;28;20038;-71
2020/12/18 12:43:53;;;;;;;65.88;32.95;;;;;;;6.55;100.00;95715.03;10532101;28;20139;-71
2020/12/18 12:48:53;;;;;;;73.37;33.20;;;;;;;6.40;100.00;95713.53;10531970;28;20150;-71
2020/12/18 12:53:54;;;;;;;76.18;35.33;;;;;;;6.41;100.00;95709.84;10531545;28;20796;-71
2020/12/18 12:58:54;;;;;;;72.70;33.20;;;;;;;6.29;100.00;95711.63;10531243;28;20043;-71
2020/12/18 13:03:55;;;;;;;72.88;34.30;;;;;;;6.03;100.00;95712.69;10531252;28;20032;-71
2020/12/18 13:08:55;;;;;;;86.80;33.17;;;;;;;5.72;100.00;95712.53;10531301;28;20131;-71
2020/12/18 13:13:55;;;;;;;78.83;34.13;;;;;;;5.46;100.00;95709.03;10530480;28;20483;-71
2020/12/18 13:18:56;;;;;;;86.40;37.33;;;;;;;5.31;100.00;95716.53;10495550;28;20298;-72
2020/12/18 13:23:57;;;;;;;76.63;36.40;;;;;;;5.21;100.00;95722.34;10489493;28;20401;-71
2020/12/18 13:28:58;;;;;;;81.18;37.97;;;;;;;5.23;100.00;95714.13;10488703;28;20302;-71
2020/12/18 13:33:58;;;;;;;86.63;38.13;;;;;;;5.06;100.00;95713.81;10488600;28;20036;-71
2020/12/18 13:38:59;;;;;;;86.90;39.88;;;;;;;5.06;100.00;95722.63;10488680;28;20038;-71
2020/12/18 13:43:59;;;;;;;97.47;41.47;;;;;;;4.85;100.00;95717.63;10486024;28;20044;-70
2020/12/18 13:48:59;;;;;;;88.17;39.13;;;;;;;4.91;100.00;95720.25;10428955;28;20127;-72
2020/12/18 13:54:00;;;;;;;96.78;41.13;;;;;;;4.84;100.00;95715.97;10446620;28;20037;-72
2020/12/18 13:59:01;;;;;;;100.90;41.27;;;;;;;4.88;100.00;95718.00;10446284;28;20040;-73
2020/12/18 14:04:01;;;;;;;88.28;39.70;;;;;;;4.83;100.00;95714.34;10448140;28;20124;-72
2020/12/18 14:09:03;;;;;;;87.57;40.67;;;;;;;4.73;100.00;95712.13;10487520;28;20036;-71
2020/12/18 14:14:04;;;;;;;93.93;40.63;;;;;;;4.59;100.00;95722.84;10487188;28;20036;-71
2020/12/18 14:19:05;;;;;;;94.80;38.58;;;;;;;4.47;100.00;95719.22;10521894;28;20052;-71
2020/12/18 14:24:05;;;;;;;80.70;35.73;;;;;;;4.45;100.00;95730.06;10519895;28;20452;-71
2020/12/18 14:29:06;;;;;;;77.75;34.88;;;;;;;4.24;100.00;95727.66;10508359;28;20300;-71
2020/12/18 14:34:06;;;;;;;80.63;35.17;;;;;;;4.09;100.00;95722.59;10525228;28;20032;-72
2020/12/18 14:39:06;;;;;;;77.00;33.65;;;;;;;3.83;100.00;95726.09;10490206;28;20932;-71
2020/12/18 14:44:07;;;;;;;85.53;35.93;;;;;;;3.87;100.00;95730.81;10498416;28;20032;-71
2020/12/18 14:49:07;;;;;;;84.65;36.95;;;;;;;3.73;100.00;95737.16;10494839;28;20283;-72
2020/12/18 14:54:09;;;;;;;75.90;34.80;;;;;;;3.61;100.00;95730.81;10495017;28;20452;-71
2020/12/18 14:59:09;;;;;;;80.03;35.88;;;;;;;3.58;100.00;95732.84;10495118;28;20076;-71
2020/12/18 15:04:14;;;;;;;91.80;37.87;;;;;;;3.52;100.00;95741.66;10493722;28;20107;-71
2020/12/18 15:09:15;;;;;;;86.80;38.85;;;;;;;3.37;100.00;95743.69;10494245;28;20290;-71
2020/12/18 15:14:15;;;;;;;101.32;39.45;;;;;;;3.36;100.00;95742.88;10505667;28;20031;-71
2020/12/18 15:19:16;;;;;;;83.88;35.97;;;;;;;3.32;100.00;95746.13;10532629;28;20047;-71
2020/12/18 15:24:16;;;;;;;80.32;37.50;;;;;;;3.25;100.00;95740.78;10532549;28;20028;-71
2020/12/18 15:29:17;;;;;;;81.15;34.67;;;;;;;3.19;100.00;95749.56;10530045;28;20395;-74
2020/12/18 15:34:17;;;;;;;79.50;35.47;;;;;;;3.17;100.00;95744.47;10531773;28;20031;-74
2020/12/18 15:39:18;;;;;;;86.25;35.20;;;;;;;3.16;100.00;95753.44;10531867;28;20103;-74
2020/12/18 15:44:18;;;;;;;91.43;34.83;;;;;;;3.05;100.00;95764.66;10533145;28;20455;-74
2020/12/18 15:49:19;;;;;;;81.37;33.80;;;;;;;3.01;100.00;95763.41;10534209;28;20040;-74
2020/12/18 15:54:21;;;;;;;79.38;32.15;;;;;;;3.03;100.00;95769.38;10532350;28;20324;-75
2020/12/18 15:59:22;;;;;;;92.43;36.25;;;;;;;3.05;100.00;95765.47;10534207;28;20047;-74
2020/12/18 16:04:22;;;;;;;85.32;34.97;;;;;;;3.04;100.00;95757.72;10533433;28;20495;-74
2020/12/18 16:09:23;;;;;;;76.75;33.40;;;;;;;3.04;100.00;95771.81;10512761;28;20115;-74
2020/12/18 16:14:23;;;;;;;83.80;34.13;;;;;;;3.06;100.00;95768.97;10530830;28;20047;-74
2020/12/18 16:19:24;;;;;;;75.20;33.15;;;;;;;3.01;100.00;95768.72;10529616;28;20389;-74
2020/12/18 16:24:25;;;;;;;80.70;31.48;;;;;;;2.90;100.00;95770.13;10527366;28;20021;-74
2020/12/18 16:29:25;;;;;;;74.95;31.98;;;;;;;2.87;100.00;95776.66;10511916;28;20028;-75
2020/12/18 16:34:27;;;;;;;73.97;30.77;;;;;;;2.68;100.00;95775.56;10520831;28;20040;-75
2020/12/18 16:39:27;;;;;;;80.95;34.17;;;;;;;2.61;100.00;95777.38;10512734;28;20085;-73
2020/12/18 16:44:30;;;;;;;82.60;35.23;;;;;;;2.64;100.00;95787.59;10497513;28;20482;-72
2020/12/18 16:49:31;;;;;;;88.90;37.28;;;;;;;2.46;100.00;95780.16;10508884;28;20298;-73
2020/12/18 16:54:31;;;;;;;83.10;34.97;;;;;;;2.45;100.00;95780.34;10499348;28;20027;-73
2020/12/18 16:59:34;;;;;;;95.78;37.30;;;;;;;2.43;100.00;95779.72;10525769;28;20032;-76
2020/12/18 17:04:35;;;;;;;98.93;38.03;;;;;;;2.36;100.00;95779.69;10523456;28;20021;-74
2020/12/18 17:09:35;;;;;;;98.32;36.38;;;;;;;2.36;100.00;95787.66;10526839;28;20036;-74
2020/12/18 17:14:36;;;;;;;91.50;37.90;;;;;;;2.49;100.00;95787.72;10519533;28;20039;-75
2020/12/18 17:19:37;;;;;;;89.45;40.40;;;;;;;2.52;100.00;95791.81;10520582;28;20052;-76
2020/12/18 17:24:39;;;;;;;82.47;36.10;;;;;;;2.51;100.00;95795.47;10518068;28;20024;-75
2020/12/18 17:29:39;;;;;;;96.63;39.80;;;;;;;2.38;100.00;95809.50;10514114;28;20993;-75
2020/12/18 17:34:39;;;;;;;94.97;38.45;;;;;;;2.21;100.00;95804.47;10513077;28;20040;-75
2020/12/18 17:39:40;;;;;;;103.07;38.70;;;;;;;2.16;100.00;95803.44;10518381;28;20036;-75
2020/12/18 17:44:41;;;;;;;107.50;47.10;;;;;;;2.04;100.00;95803.16;10522040;28;20028;-75
2020/12/18 17:49:42;;;;;;;126.82;47.47;;;;;;;2.09;100.00;95802.56;10521171;28;20039;-75
2020/12/18 17:54:42;;;;;;;106.80;46.63;;;;;;;2.00;100.00;95808.00;10519233;28;20642;-74
2020/12/18 17:59:42;;;;;;;111.80;46.63;;;;;;;1.99;100.00;95802.91;10499990;28;20489;-75
2020/12/18 18:04:43;;;;;;;113.57;45.53;;;;;;;2.04;100.00;95809.28;10506856;28;21128;-73
2020/12/18 18:09:44;;;;;;;99.80;46.17;;;;;;;2.06;100.00;95801.13;10494259;28;20033;-73
2020/12/18 18:14:45;;;;;;;102.07;41.80;;;;;;;2.03;100.00;95812.13;10491165;28;20535;-71
2020/12/18 18:19:45;;;;;;;114.45;44.78;;;;;;;2.08;100.00;95816.84;10503655;28;20317;-72
2020/12/18 18:24:46;;;;;;;107.13;45.40;;;;;;;2.08;100.00;95804.41;10482330;28;20025;-73
2020/12/18 18:29:46;;;;;;;108.78;44.40;;;;;;;1.98;100.00;95804.75;10483782;28;20374;-73
2020/12/18 18:34:47;;;;;;;115.32;44.67;;;;;;;1.93;100.00;95811.66;10509408;28;20487;-73
2020/12/18 18:39:48;;;;;;;124.35;48.35;;;;;;;1.91;100.00;95813.66;10503203;28;20048;-72
2020/12/18 18:44:49;;;;;;;110.15;43.35;;;;;;;1.91;100.00;95819.75;10520615;28;20812;-72
2020/12/18 18:49:49;;;;;;;120.85;47.70;;;;;;;1.63;100.00;95814.44;10524601;28;20104;-73
2020/12/18 18:54:50;;;;;;;99.53;44.37;;;;;;;1.76;100.00;95817.22;10523633;28;20032;-73
2020/12/18 18:59:51;;;;;;;124.30;49.17;;;;;;;1.75;100.00;95823.50;10506723;28;20090;-73
2020/12/18 19:04:52;;;;;;;129.68;49.00;;;;;;;1.82;100.00;95829.69;10519675;28;20301;-73
2020/12/18 19:09:54;;;;;;;117.05;49.50;;;;;;;1.77;100.00;95826.78;10520579;28;20703;-73
2020/12/18 19:14:54;;;;;;;126.22;48.47;;;;;;;1.76;100.00;95826.97;10504650;28;20036;-73
2020/12/18 19:31:12;;;;;;;119.80;51.10;;;;;;;1.55;100.00;95841.91;10530377;28;20585;-72
2020/12/18 19:36:13;;;;;;;117.38;50.97;;;;;;;1.62;100.00;95841.94;10496753;28;20032;-73
2020/12/18 19:41:13;;;;;;;139.95;53.58;;;;;;;1.54;100.00;95838.41;10532699;28;20039;-73
2020/12/18 19:46:14;;;;;;;128.80;53.22;;;;;;;1.59;100.00;95843.16;10512802;28;20060;-73
2020/12/18 19:51:21;;;;;;;128.73;51.40;;;;;;;1.55;100.00;95841.91;10527211;28;20032;-72
2020/12/18 19:56:32;;;;;;;114.05;51.42;;;;;;;1.45;100.00;95841.38;10522319;28;20134;-72
2020/12/18 20:01:36;;;;;;;121.20;50.03;;;;;;;1.47;100.00;95844.66;10510083;28;20044;-72
2020/12/18 20:06:36;;;;;;;124.35;52.20;;;;;;;1.41;100.00;95838.28;10526905;28;20023;-73
2020/12/18 20:11:37;;;;;;;128.90;52.03;;;;;;;1.35;100.00;95836.38;10522964;28;20089;-72
2020/12/18 20:16:38;;;;;;;125.47;53.08;;;;;;;1.27;100.00;95834.69;10524748;28;20113;-71
2020/12/18 20:21:43;;;;;;;128.50;50.97;;;;;;;1.25;100.00;95834.03;10513994;28;20479;-72
2020/12/18 20:26:45;;;;;;;119.70;45.47;;;;;;;1.22;100.00;95829.13;10491334;28;20039;-73
2020/12/18 20:31:48;;;;;;;122.22;50.05;;;;;;;1.21;100.00;95829.31;10496905;28;20029;-73
2020/12/18 20:36:54;;;;;;;124.57;52.85;;;;;;;1.14;100.00;95830.03;10488320;28;20040;-73
2020/12/18 20:41:57;;;;;;;138.88;56.85;;;;;;;1.11;100.00;95832.25;10486833;28;20064;-73
2020/12/18 20:46:58;;;;;;;169.35;75.50;;;;;;;1.09;100.00;95835.09;10488280;28;20040;-73
2020/12/18 20:51:58;;;;;;;195.30;84.35;;;;;;;1.07;100.00;95836.28;10469772;28;20047;-73
2020/12/18 20:56:59;;;;;;;195.25;83.70;;;;;;;0.99;100.00;95840.69;10471367;28;20047;-73
2020/12/18 21:02:02;;;;;;;184.90;80.83;;;;;;;0.95;100.00;95838.56;10502437;28;20058;-73
2020/12/18 21:07:02;;;;;;;178.77;77.15;;;;;;;0.89;100.00;95841.97;10527213;28;20741;-73
2020/12/18 21:12:03;;;;;;;157.32;72.72;;;;;;;0.83;100.00;95846.19;10509443;28;20029;-73
2020/12/18 21:17:03;;;;;;;167.43;69.78;;;;;;;0.78;100.00;95830.88;10486128;28;20063;-73
2020/12/18 21:22:04;;;;;;;161.03;65.50;;;;;;;0.67;100.00;95832.16;10502014;28;20036;-73
2020/12/18 21:27:05;;;;;;;173.07;73.50;;;;;;;0.57;100.00;95838.72;10527497;28;20332;-73
2020/12/18 21:32:10;;;;;;;188.68;78.60;;;;;;;0.50;100.00;95839.47;10507952;28;20149;-73
2020/12/18 21:37:11;;;;;;;180.35;75.55;;;;;;;0.30;100.00;95841.00;10527963;28;20120;-72
2020/12/18 21:42:11;;;;;;;208.23;83.63;;;;;;;0.36;100.00;95845.53;10528340;28;20081;-72
2020/12/18 21:47:11;;;;;;;190.30;82.38;;;;;;;0.30;100.00;95838.34;10528418;28;20471;-73
2020/12/18 21:52:12;;;;;;;262.80;80.23;;;;;;;0.22;100.00;95841.06;10526371;28;20058;-72
2020/12/18 21:57:12;;;;;;;222.20;81.53;;;;;;;0.14;100.00;95826.94;10527777;28;20317;-73
2020/12/18 22:02:13;;;;;;;310.98;86.72;;;;;;;0.17;100.00;95831.84;10527873;28;20043;-72
2020/12/18 22:07:17;;;;;;;225.37;82.03;;;;;;;0.12;100.00;95828.13;10529454;28;20027;-75
2020/12/18 22:12:20;;;;;;;199.18;81.93;;;;;;;0.03;100.00;95830.03;10528010;28;20039;-76
2020/12/18 22:17:20;;;;;;;210.38;84.57;;;;;;;-0.01;100.00;95820.81;10528364;28;20908;-77
2020/12/18 22:22:22;;;;;;;208.48;85.18;;;;;;;-0.12;100.00;95821.25;10510011;28;20052;-77
2020/12/18 22:27:23;;;;;;;200.68;85.47;;;;;;;-0.30;100.00;95827.66;10528497;28;20577;-77
2020/12/18 22:32:23;;;;;;;215.53;81.10;;;;;;;-0.30;100.00;95825.03;10528620;28;20039;-77
2020/12/18 22:37:24;;;;;;;193.50;83.00;;;;;;;-0.27;100.00;95823.84;10520249;28;20318;-77
2020/12/18 22:42:24;;;;;;;208.52;81.05;;;;;;;-0.33;100.00;95814.00;10500937;28;21026;-77
2020/12/18 22:47:29;;;;;;;179.83;77.90;;;;;;;-0.27;100.00;95822.03;10485829;28;20664;-77
2020/12/18 22:52:29;;;;;;;180.32;76.32;;;;;;;-0.24;100.00;95823.50;10485780;28;20294;-76
2020/12/18 22:57:30;;;;;;;197.25;72.43;;;;;;;-0.27;100.00;95835.22;10485941;28;20021;-77